Time;durP1;ratioP1;P1;durP2;ratioP2;P2;SDS_P1;SDS_P2;PMS_P1;PMS_P2;Temp;Humidity;BMP_temperature;BMP_pressure;BME280_temperature;BME280_humidity;BME280_pressure;Samples;Min_cycle;Max_cycle;Signal;HPM_P1;HPM_P2
2023/04/18 00:00:11;;;;;;;10.00;8.33;;;11.60;55.00;;;14.22;42.48;102817.28;5034378;28;20670;-60
2023/04/18 00:02:38;;;;;;;8.83;7.87;;;11.60;55.20;;;14.21;42.61;102815.66;5034150;28;20234;-58
2023/04/18 00:05:07;;;;;;;10.83;8.33;;;11.60;55.20;;;14.22;42.68;102817.28;5033676;28;20237;-60
2023/04/18 00:07:34;;;;;;;9.00;8.00;;;11.60;55.60;;;14.21;42.95;102810.34;5049323;28;20190;-61
2023/04/18 00:10:02;;;;;;;10.53;8.33;;;11.60;55.80;;;14.19;43.12;102807.03;5033864;28;20261;-60
2023/04/18 00:12:29;;;;;;;11.67;9.27;;;11.50;55.80;;;14.17;43.33;102815.09;5034426;28;20191;-62
2023/04/18 00:14:57;;;;;;;9.80;7.93;;;11.50;56.30;;;14.17;43.22;102811.59;5033487;28;20229;-58
2023/04/18 00:17:27;;;;;;;10.37;8.63;;;11.50;56.20;;;14.21;43.37;102813.00;5034368;28;20622;-59
2023/04/18 00:19:55;;;;;;;10.10;8.27;;;11.50;56.60;;;14.26;43.25;102808.09;5034047;28;20202;-60
2023/04/18 00:22:22;;;;;;;10.23;7.90;;;11.50;56.90;;;14.28;43.14;102819.38;5034125;28;20214;-57
2023/04/18 00:24:49;;;;;;;8.97;8.07;;;11.50;56.90;;;14.31;43.23;102810.34;5033470;28;20214;-61
2023/04/18 00:27:17;;;;;;;8.67;7.77;;;11.50;57.10;;;14.38;43.16;102816.72;5033732;28;20191;-61
2023/04/18 00:29:44;;;;;;;9.47;8.00;;;11.60;57.20;;;14.43;43.17;102820.56;5033691;28;20563;-60
2023/04/18 00:32:13;;;;;;;9.00;7.97;;;11.60;57.50;;;14.49;43.16;102814.69;5034044;28;20191;-59
2023/04/18 00:34:40;;;;;;;8.87;7.97;;;11.60;57.40;;;14.52;43.12;102811.75;5033468;28;20229;-57
2023/04/18 00:37:07;;;;;;;9.23;8.33;;;11.70;57.50;;;14.52;43.12;102814.38;5033878;28;20191;-63
2023/04/18 00:39:35;;;;;;;9.63;8.57;;;11.70;57.90;;;14.50;43.13;102810.22;5032647;28;20211;-60
2023/04/18 00:42:02;;;;;;;11.37;9.17;;;11.70;57.30;;;14.42;43.23;102803.00;5033643;28;20210;-61
2023/04/18 00:44:30;;;;;;;9.47;8.03;;;11.70;57.40;;;14.35;43.43;102812.53;5032792;28;20675;-59
2023/04/18 00:46:57;;;;;;;9.27;7.93;;;11.70;57.50;;;14.28;43.41;102814.06;5034084;28;20195;-60
2023/04/18 00:49:26;;;;;;;9.80;7.93;;;11.60;57.60;;;14.16;43.63;102808.13;5032511;28;20679;-60
2023/04/18 00:51:55;;;;;;;8.33;7.47;;;11.60;57.70;;;14.06;44.00;102814.44;5034006;28;20595;-60
2023/04/18 00:54:25;;;;;;;8.50;7.67;;;11.50;57.90;;;13.97;44.19;102812.69;5033516;28;20224;-60
2023/04/18 00:56:52;;;;;;;8.10;6.93;;;11.40;58.10;;;13.93;44.26;102812.13;5033546;28;20194;-60
2023/04/18 00:59:21;;;;;;;9.67;7.37;;;11.40;58.20;;;13.91;44.17;102813.25;5033639;28;20547;-58
2023/04/18 01:01:48;;;;;;;8.43;6.67;;;11.30;58.30;;;13.85;44.24;102808.53;5033740;28;20305;-63
2023/04/18 01:04:15;;;;;;;7.33;6.47;;;11.30;58.30;;;13.84;44.27;102802.41;5033514;28;20246;-61
2023/04/18 01:06:44;;;;;;;7.50;6.30;;;11.30;58.40;;;13.78;44.28;102810.09;5033905;28;20190;-58
2023/04/18 01:09:12;;;;;;;6.47;5.83;;;11.20;58.20;;;13.77;44.34;102816.34;5033628;28;20190;-62
2023/04/18 01:11:39;;;;;;;6.90;5.50;;;11.20;58.20;;;13.78;44.02;102807.44;5033696;28;20273;-62
2023/04/18 01:14:07;;;;;;;7.33;5.83;;;11.20;58.20;;;13.81;44.01;102817.75;5033340;28;20322;-60
2023/04/18 01:16:35;;;;;;;6.27;5.20;;;11.20;58.20;;;13.82;43.81;102811.47;5033460;28;20687;-59
2023/04/18 01:19:04;;;;;;;5.53;4.93;;;11.20;58.10;;;13.77;43.95;102817.19;5033355;28;20195;-59
2023/04/18 01:21:35;;;;;;;7.87;6.07;;;11.20;58.20;;;13.70;44.15;102815.25;5033673;28;20190;-61
2023/04/18 01:24:10;;;;;;;7.27;5.80;;;11.20;58.40;;;13.69;44.31;102814.47;5033355;28;20264;-61
2023/04/18 01:26:38;;;;;;;6.30;5.63;;;11.10;58.50;;;13.70;44.26;102809.97;5033533;28;20189;-60
2023/04/18 01:29:05;;;;;;;6.50;5.80;;;11.10;58.70;;;13.62;44.80;102823.09;5035748;28;20202;-59
2023/04/18 01:31:34;;;;;;;7.17;6.27;;;11.10;59.10;;;13.61;44.75;102816.97;5037177;28;20191;-59
2023/04/18 01:34:02;;;;;;;8.33;6.27;;;11.10;59.20;;;13.60;45.10;102814.47;5036208;28;20222;-59
2023/04/18 01:36:30;;;;;;;8.63;7.37;;;11.10;59.60;;;13.60;45.41;102814.47;5036830;28;20527;-62
2023/04/18 01:38:57;;;;;;;7.90;6.70;;;11.00;60.00;;;13.63;45.17;102803.59;5036743;28;20274;-61
2023/04/18 01:41:28;;;;;;;8.80;5.90;;;11.00;60.00;;;13.66;45.10;102814.72;5036641;28;20642;-61
2023/04/18 01:43:55;;;;;;;8.10;6.53;;;11.00;60.20;;;13.74;45.09;102814.03;5036501;28;20220;-62
2023/04/18 01:46:23;;;;;;;7.63;6.83;;;11.00;60.50;;;13.76;45.27;102809.41;5035459;28;20693;-62
2023/04/18 01:48:50;;;;;;;9.00;6.93;;;11.00;60.90;;;13.76;45.48;102809.41;5037043;28;20225;-60
2023/04/18 01:51:17;;;;;;;10.80;7.90;;;11.00;61.10;;;13.78;45.79;102810.09;5036860;28;20186;-59
2023/04/18 01:53:44;;;;;;;9.93;7.90;;;11.00;61.70;;;13.79;46.02;102815.25;5035208;28;20202;-61
2023/04/18 01:56:11;;;;;;;9.73;7.83;;;11.00;62.30;;;13.76;46.27;102809.41;5037775;28;20665;-60
2023/04/18 01:58:40;;;;;;;10.17;8.33;;;11.00;62.50;;;13.72;46.32;102808.84;5035024;28;20199;-60
2023/04/18 02:01:07;;;;;;;9.40;8.50;;;11.10;62.60;;;13.67;46.40;102812.94;5038052;28;20273;-59
2023/04/18 02:03:34;;;;;;;10.40;9.13;;;11.00;63.00;;;13.63;46.59;102815.00;5036939;28;20210;-61
2023/04/18 02:06:03;;;;;;;11.10;9.30;;;11.00;63.20;;;13.60;46.51;102815.28;5036542;28;20195;-61
2023/04/18 02:08:34;;;;;;;11.33;9.13;;;11.00;63.50;;;13.53;46.90;102812.38;5036516;28;20671;-61
2023/04/18 02:11:01;;;;;;;11.40;9.13;;;10.90;63.40;;;13.55;47.02;102817.53;5036368;28;20197;-60
2023/04/18 02:13:28;;;;;;;11.00;9.87;;;10.90;63.80;;;13.60;47.16;102817.13;5036265;28;20199;-60
2023/04/18 02:15:56;;;;;;;12.87;9.67;;;10.90;64.20;;;13.57;46.98;102811.13;5035368;28;20222;-61
2023/04/18 02:18:24;;;;;;;12.33;9.87;;;10.90;64.20;;;13.57;47.26;102816.41;5036298;28;20201;-60
2023/04/18 02:20:51;;;;;;;12.27;9.93;;;10.90;64.50;;;13.61;47.22;102816.13;5036408;28;20202;-61
2023/04/18 02:23:18;;;;;;;13.07;10.07;;;10.90;64.70;;;13.63;47.03;102809.72;5035767;28;20705;-61
2023/04/18 02:25:45;;;;;;;15.17;11.13;;;10.90;64.60;;;13.66;47.20;102808.59;5035945;28;20625;-61
2023/04/18 02:28:12;;;;;;;14.07;10.50;;;10.90;64.90;;;13.65;47.33;102813.06;5035705;28;20245;-58
2023/04/18 02:30:39;;;;;;;13.83;10.63;;;10.90;65.00;;;13.65;47.21;102812.22;5036121;28;20281;-61
2023/04/18 02:33:07;;;;;;;12.37;11.07;;;10.90;64.90;;;13.64;47.18;102816.69;5035580;28;20193;-57
2023/04/18 02:35:37;;;;;;;12.43;10.60;;;10.90;64.90;;;13.64;47.19;102815.84;5035366;28;20241;-60
2023/04/18 02:38:04;;;;;;;13.80;10.80;;;10.90;65.00;;;13.66;47.37;102814.72;5035771;28;20282;-60
2023/04/18 02:40:31;;;;;;;15.40;12.40;;;10.90;65.20;;;13.65;47.48;102812.22;5034599;28;20194;-60
2023/04/18 02:42:58;;;;;;;13.53;11.73;;;10.90;65.30;;;13.61;47.51;102810.84;5035363;28;20284;-60
2023/04/18 02:45:25;;;;;;;13.07;10.53;;;10.90;65.30;;;13.60;47.41;102812.63;5035179;28;20221;-58
2023/04/18 02:47:52;;;;;;;15.27;10.80;;;10.90;65.30;;;13.63;47.60;102811.53;5035394;28;20253;-59
2023/04/18 02:50:24;;;;;;;16.67;12.20;;;10.90;65.80;;;13.67;47.71;102815.56;5035659;28;20632;-60
2023/04/18 02:52:51;;;;;;;14.23;11.67;;;10.90;66.10;;;13.65;47.74;102814.84;5035455;28;20325;-60
2023/04/18 02:55:18;;;;;;;13.00;11.23;;;10.90;65.80;;;13.66;47.76;102814.72;5034857;28;20218;-60
2023/04/18 02:57:45;;;;;;;14.03;12.00;;;10.90;65.80;;;13.70;47.74;102817.91;5035137;28;20197;-60
2023/04/18 03:00:13;;;;;;;13.43;12.00;;;10.90;66.00;;;13.73;47.73;102815.81;5035298;28;20244;-59
2023/04/18 03:02:40;;;;;;;12.63;11.17;;;10.90;66.00;;;13.74;47.66;102816.66;5035077;28;20225;-62
2023/04/18 03:05:08;;;;;;;12.97;11.30;;;10.90;66.00;;;13.79;47.52;102822.34;5034700;28;20217;-60
2023/04/18 03:07:36;;;;;;;18.87;12.97;;;10.90;66.00;;;13.80;47.46;102821.38;5033727;28;20202;-60
2023/04/18 03:10:04;;;;;;;15.87;13.23;;;11.00;66.00;;;13.71;47.66;102822.25;5035080;28;20213;-61
2023/04/18 03:12:31;;;;;;;15.50;12.13;;;11.00;66.00;;;13.65;47.66;102817.50;5034803;28;20187;-59
2023/04/18 03:14:58;;;;;;;15.43;12.77;;;10.90;65.80;;;13.64;47.70;102821.16;5034266;28;20652;-57
2023/04/18 03:17:25;;;;;;;15.67;13.33;;;10.90;66.00;;;13.63;47.96;102824.75;5034751;28;20191;-57
2023/04/18 03:19:52;;;;;;;16.80;13.10;;;10.90;66.20;;;13.58;47.94;102830.47;5034661;28;20658;-65
2023/04/18 03:22:19;;;;;;;13.77;12.17;;;10.90;66.30;;;13.60;48.00;102830.34;5034897;28;20203;-60
2023/04/18 03:24:48;;;;;;;15.47;13.03;;;10.90;66.20;;;13.62;48.09;102831.03;5034223;28;20210;-60
2023/04/18 03:27:14;;;;;;;19.37;14.43;;;10.90;66.50;;;13.59;47.95;102826.88;5034620;28;20248;-60
2023/04/18 03:29:41;;;;;;;18.37;14.63;;;10.90;66.50;;;13.55;48.21;102838.69;5033521;28;20206;-59
2023/04/18 03:32:08;;;;;;;21.40;15.73;;;10.90;66.90;;;13.45;48.51;102836.06;5034569;28;20198;-61
2023/04/18 03:34:35;;;;;;;17.90;14.33;;;10.80;66.80;;;13.45;48.40;102841.34;5034326;28;20647;-60
2023/04/18 03:37:02;;;;;;;19.67;15.77;;;10.80;67.10;;;13.46;48.58;102840.38;5034722;28;20195;-61
2023/04/18 03:39:29;;;;;;;19.40;14.90;;;10.80;68.00;;;13.45;48.50;102844.00;5034135;28;20225;-61
2023/04/18 03:41:57;;;;;;;21.07;15.50;;;10.80;67.40;;;13.43;48.73;102834.56;5034629;28;20249;-61
2023/04/18 03:44:24;;;;;;;18.07;14.17;;;10.70;67.20;;;13.45;48.60;102840.53;5012807;28;20819;-59
2023/04/18 03:46:52;;;;;;;21.37;16.57;;;10.70;67.30;;;13.42;48.86;102840.81;5014668;28;20664;-61
2023/04/18 03:49:19;;;;;;;20.90;15.97;;;10.70;67.90;;;13.40;48.93;102840.97;5013307;28;20191;-62
2023/04/18 03:51:46;;;;;;;18.23;15.97;;;10.70;67.80;;;13.39;49.17;102843.72;5029509;28;20199;-60
2023/04/18 03:54:14;;;;;;;19.17;16.40;;;10.70;68.00;;;13.41;48.94;102847.91;5033913;28;20547;-61
2023/04/18 03:56:42;;;;;;;22.37;16.37;;;10.70;67.90;;;13.40;48.79;102851.56;5034535;28;20265;-62
2023/04/18 03:59:11;;;;;;;19.77;16.93;;;10.70;67.90;;;13.40;49.11;102851.56;5034720;28;20209;-61
2023/04/18 04:01:38;;;;;;;27.53;17.77;;;10.70;68.00;;;13.44;48.81;102847.63;5034721;28;20256;-59
2023/04/18 04:04:05;;;;;;;22.33;18.13;;;10.70;68.10;;;13.42;48.99;102849.59;5034012;28;20305;-61
2023/04/18 04:06:32;;;;;;;21.90;19.10;;;10.70;68.90;;;13.33;49.37;102850.44;5032833;28;20269;-57
2023/04/18 04:08:59;;;;;;;22.47;18.03;;;10.70;68.30;;;13.25;49.28;102842.38;5033797;28;20190;-61
2023/04/18 04:11:26;;;;;;;27.03;19.53;;;10.60;68.10;;;13.20;49.42;102844.59;5033974;28;20752;-60
2023/04/18 04:13:53;;;;;;;22.67;19.27;;;10.60;68.30;;;13.20;49.70;102841.94;5033078;28;20197;-62
2023/04/18 04:16:21;;;;;;;24.57;19.17;;;10.50;68.60;;;13.20;49.32;102849.88;5034313;28;20186;-64
2023/04/18 04:18:48;;;;;;;21.80;18.67;;;10.50;68.60;;;13.25;49.42;102846.81;5048739;28;20248;-62
2023/04/18 04:21:15;;;;;;;22.83;19.13;;;10.50;68.90;;;13.29;49.20;102848.19;5033626;28;20195;-62
2023/04/18 04:23:45;;;;;;;25.83;20.00;;;10.50;68.80;;;13.29;49.22;102843.75;5033079;28;20241;-61
2023/04/18 04:26:13;;;;;;;21.27;18.10;;;10.50;68.70;;;13.29;49.36;102843.75;5032466;28;20203;-59
2023/04/18 04:28:41;;;;;;;25.70;22.77;;;10.60;68.80;;;13.26;49.42;102849.34;5033435;28;20667;-61
2023/04/18 04:31:09;;;;;;;27.07;21.70;;;10.50;68.70;;;13.18;49.38;102851.81;5044823;28;20660;-62
2023/04/18 04:33:37;;;;;;;23.60;19.80;;;10.50;68.50;;;13.09;49.60;102857.97;5013290;28;20596;-61
2023/04/18 04:36:07;;;;;;;28.23;19.50;;;10.50;68.40;;;13.10;49.64;102853.50;5013561;28;20195;-60
2023/04/18 04:38:37;;;;;;;24.70;20.23;;;10.50;69.30;;;13.08;49.58;102861.56;5013839;28;20214;-57
2023/04/18 04:41:05;;;;;;;24.10;20.13;;;10.50;68.70;;;13.10;49.66;102862.25;5013549;28;20199;-58
2023/04/18 04:43:32;;;;;;;22.60;19.90;;;10.50;68.60;;;13.12;49.50;102864.78;5025927;28;20218;-59
2023/04/18 04:46:01;;;;;;;27.87;20.13;;;10.50;68.70;;;13.09;49.51;102865.03;5033258;28;20211;-62
2023/04/18 04:48:28;;;;;;;27.23;21.13;;;10.40;68.40;;;12.99;49.36;102872.94;5033847;28;20293;-62
2023/04/18 04:50:58;;;;;;;29.13;20.87;;;10.40;68.30;;;12.91;49.52;102870.13;5033287;28;20187;-58
2023/04/18 04:53:31;;;;;;;23.27;18.20;;;10.40;68.10;;;12.93;49.67;102876.13;5033209;28;20183;-59
2023/04/18 04:55:58;;;;;;;25.73;21.10;;;10.40;68.30;;;12.94;49.43;102883.06;5033682;28;20221;-57
2023/04/18 04:58:25;;;;;;;27.73;20.90;;;10.30;68.30;;;12.93;49.48;102879.59;5033858;28;20194;-61
2023/04/18 05:00:52;;;;;;;22.63;18.60;;;10.30;68.00;;;12.99;49.10;102883.50;5013746;28;20241;-59
2023/04/18 05:03:19;;;;;;;23.40;19.40;;;10.30;68.00;;;13.06;49.09;102875.88;5014350;28;20305;-61
2023/04/18 05:05:47;;;;;;;24.77;20.30;;;10.30;67.90;;;13.07;48.69;102875.78;5016850;28;20529;-60
2023/04/18 05:08:15;;;;;;;24.57;19.30;;;10.40;67.80;;;13.13;48.43;102877.00;5018878;28;20199;-61
2023/04/18 05:10:43;;;;;;;23.70;18.53;;;10.40;67.60;;;13.09;48.44;102876.47;5038742;28;20199;-59
2023/04/18 05:13:10;;;;;;;25.47;19.43;;;10.40;67.40;;;13.14;48.48;102886.63;5037862;28;20194;-60
2023/04/18 05:15:38;;;;;;;21.93;18.57;;;10.40;67.20;;;13.19;48.36;102884.41;5035646;28;20230;-60
2023/04/18 05:18:05;;;;;;;26.43;18.90;;;10.40;67.20;;;13.17;48.10;102881.88;5037528;28;20667;-59
2023/04/18 05:20:32;;;;;;;23.27;17.77;;;10.50;66.90;;;13.23;48.24;102880.50;5037917;28;20204;-63
2023/04/18 05:22:59;;;;;;;23.03;18.77;;;10.50;67.00;;;13.27;48.16;102888.00;5038088;28;20214;-61
2023/04/18 05:25:28;;;;;;;25.50;19.77;;;10.50;66.80;;;13.28;48.02;102884.41;5036599;28;20295;-60
2023/04/18 05:27:55;;;;;;;22.17;17.93;;;10.50;66.50;;;13.24;47.86;102880.34;5036545;28;20236;-63
2023/04/18 05:30:22;;;;;;;23.80;18.30;;;10.50;66.50;;;13.20;47.76;102880.75;5036442;28;20221;-60
2023/04/18 05:32:49;;;;;;;27.03;19.83;;;10.50;66.20;;;13.18;47.90;102882.72;5036430;28;20198;-60
2023/04/18 05:35:17;;;;;;;22.70;18.63;;;10.50;66.40;;;13.24;47.76;102887.47;5036019;28;20237;-61
2023/04/18 05:37:43;;;;;;;24.93;19.30;;;10.50;66.50;;;13.08;47.98;102889.81;5036687;28;20228;-63
2023/04/18 05:40:12;;;;;;;23.83;19.87;;;10.50;66.30;;;13.03;48.10;102900.75;5035344;28;20626;-62
2023/04/18 05:42:40;;;;;;;24.40;19.37;;;10.50;66.40;;;12.99;48.33;102898.53;5036908;28;20199;-59
2023/04/18 05:45:08;;;;;;;27.57;19.30;;;10.40;66.40;;;12.98;48.33;102897.69;5035602;28;20218;-62
2023/04/18 05:47:35;;;;;;;24.07;19.37;;;10.40;66.70;;;13.06;48.48;102897.88;5036583;28;20256;-60
2023/04/18 05:50:03;;;;;;;23.77;19.70;;;10.40;67.00;;;13.16;48.31;102896.09;5034899;28;20195;-61
2023/04/18 05:52:30;;;;;;;25.30;20.47;;;10.50;67.00;;;13.18;48.00;102910.00;5035897;28;20656;-63
2023/04/18 05:54:57;;;;;;;25.80;19.90;;;10.50;66.80;;;13.13;48.26;102906.94;5036204;28;20218;-61
2023/04/18 05:57:24;;;;;;;25.13;19.97;;;10.50;66.80;;;13.17;48.29;102908.31;5036234;28;20194;-63
2023/04/18 05:59:53;;;;;;;24.67;18.67;;;10.50;66.90;;;13.22;48.08;102908.75;5035738;28;20647;-62
2023/04/18 06:02:20;;;;;;;23.20;18.33;;;10.50;66.90;;;13.26;48.16;102910.16;5036085;28;20190;-61
2023/04/18 06:04:47;;;;;;;24.43;18.67;;;10.50;66.80;;;13.37;48.12;102904.72;5035550;28;20221;-60
2023/04/18 06:07:15;;;;;;;25.03;19.33;;;10.60;67.10;;;13.42;47.72;102918.38;5035407;28;20198;-61
2023/04/18 06:09:42;;;;;;;26.47;20.13;;;10.60;66.80;;;13.50;47.62;102905.25;5034030;28;20202;-59
2023/04/18 06:12:09;;;;;;;25.00;19.73;;;10.70;66.90;;;13.56;47.58;102904.72;5036140;28;20190;-59
2023/04/18 06:14:36;;;;;;;22.70;18.63;;;10.70;66.70;;;13.61;47.45;102906.09;5034994;28;20599;-61
2023/04/18 06:17:06;;;;;;;27.27;19.40;;;10.70;66.50;;;13.69;47.43;102912.38;5035403;28;20260;-61
2023/04/18 06:19:33;;;;;;;23.00;17.37;;;10.80;66.60;;;13.76;47.15;102904.69;5035615;28;20191;-60
2023/04/18 06:22:00;;;;;;;22.57;17.50;;;10.80;66.40;;;13.82;47.19;102909.41;5035602;28;20191;-59
2023/04/18 06:24:27;;;;;;;22.90;19.33;;;10.90;66.30;;;13.85;47.04;102912.63;5035047;28;20214;-59
2023/04/18 06:26:57;;;;;;;24.67;18.97;;;11.00;66.20;;;13.89;47.13;102905.22;5035277;28;20186;-60
2023/04/18 06:29:27;;;;;;;20.17;17.50;;;11.10;66.00;;;13.90;47.10;102917.50;5035095;28;20187;-61
2023/04/18 06:31:54;;;;;;;23.50;18.50;;;11.10;66.00;;;13.86;46.97;102916.13;5035661;28;20179;-60
2023/04/18 06:34:22;;;;;;;20.50;16.73;;;11.10;65.50;;;13.84;46.96;102918.03;5033984;28;20256;-60
2023/04/18 06:36:49;;;;;;;22.33;16.40;;;11.20;65.20;;;13.84;46.89;102918.03;5035322;28;20639;-62
2023/04/18 06:39:16;;;;;;;24.67;17.00;;;11.20;65.10;;;13.82;46.60;102918.19;5033843;28;20214;-59
2023/04/18 06:41:43;;;;;;;24.13;16.97;;;11.20;64.60;;;13.69;46.60;102922.13;5034897;28;20493;-61
2023/04/18 06:44:10;;;;;;;18.43;15.77;;;11.20;64.20;;;13.60;46.92;102922.97;5034890;28;20268;-60
2023/04/18 06:46:37;;;;;;;19.37;15.80;;;11.20;64.30;;;13.65;47.07;102928.66;5035276;28;20201;-63
2023/04/18 06:49:04;;;;;;;20.57;15.90;;;11.20;64.60;;;13.67;47.00;102932.00;5035562;28;20191;-60
2023/04/18 06:51:33;;;;;;;19.47;16.50;;;11.20;64.60;;;13.75;46.87;102921.53;5035521;28;20237;-65
2023/04/18 06:54:00;;;;;;;18.27;14.83;;;11.20;64.50;;;13.81;46.68;102928.94;5034983;28;20206;-61
2023/04/18 06:56:28;;;;;;;19.67;17.20;;;11.30;64.50;;;13.90;46.65;102930.72;5035471;28;20572;-63
2023/04/18 06:58:56;;;;;;;21.03;16.27;;;11.30;64.50;;;13.95;46.41;102931.13;5035708;28;20671;-62
2023/04/18 07:01:23;;;;;;;22.40;17.93;;;11.30;64.20;;;14.01;46.40;102925.25;5051586;28;20186;-63
2023/04/18 07:03:50;;;;;;;22.13;16.97;;;11.40;64.10;;;14.10;45.83;102930.53;5033460;28;20246;-60
2023/04/18 07:06:17;;;;;;;16.63;14.10;;;11.50;63.80;;;14.19;45.85;102928.84;5034563;28;20690;-60
2023/04/18 07:08:45;;;;;;;19.63;15.10;;;11.50;63.60;;;14.11;45.68;102936.66;5034249;28;20200;-60
2023/04/18 07:11:12;;;;;;;18.53;14.00;;;11.50;62.90;;;14.09;45.81;102928.03;5033553;28;20293;-62
2023/04/18 07:13:39;;;;;;;19.23;15.60;;;11.60;62.90;;;14.10;45.67;102934.97;5033655;28;20243;-59
2023/04/18 07:16:08;;;;;;;18.53;15.33;;;11.60;62.60;;;14.07;45.72;102935.28;5034725;28;20195;-63
2023/04/18 07:18:35;;;;;;;16.80;14.83;;;11.60;62.30;;;14.07;45.80;102930.81;5034122;28;20662;-62
2023/04/18 07:21:06;;;;;;;17.20;13.97;;;11.60;62.40;;;14.11;45.67;102942.81;5034285;28;20229;-58
2023/04/18 07:23:33;;;;;;;18.40;14.17;;;11.60;62.50;;;14.24;45.57;102938.00;5034315;28;20280;-59
2023/04/18 07:26:02;;;;;;;18.07;14.17;;;11.70;62.70;;;14.46;45.04;102931.56;5034029;28;20219;-62
2023/04/18 07:28:31;;;;;;;18.60;13.97;;;11.80;62.40;;;14.93;44.31;102928.81;5033625;28;20198;-61
2023/04/18 07:30:59;;;;;;;16.03;13.63;;;11.90;61.90;;;15.54;43.69;102929.81;5034201;28;20202;-62
2023/04/18 07:33:30;;;;;;;17.50;14.27;;;12.30;61.70;;;16.28;41.87;102933.63;5033487;28;20225;-61
2023/04/18 07:35:57;;;;;;;15.80;12.57;;;12.70;61.10;;;16.98;40.86;102928.97;5032997;28;20642;-59
2023/04/18 07:38:24;;;;;;;15.07;12.57;;;13.20;59.80;;;17.87;39.35;102937.91;5033924;28;20659;-61
2023/04/18 07:40:56;;;;;;;14.60;13.07;;;13.70;58.70;;;18.44;37.60;102924.44;5034017;28;20190;-62
2023/04/18 07:43:25;;;;;;;15.23;12.70;;;14.30;56.30;;;19.34;37.15;102934.50;5033464;28;20198;-61
2023/04/18 07:45:52;;;;;;;15.97;13.47;;;14.90;56.60;;;20.33;35.42;102936.97;5033326;28;20218;-62
2023/04/18 07:48:21;;;;;;;14.73;12.10;;;15.50;55.10;;;21.27;33.85;102932.38;5031975;28;20194;-61
2023/04/18 07:50:48;;;;;;;12.43;11.10;;;16.20;53.60;;;22.00;31.11;102936.53;5032760;28;20202;-60
2023/04/18 07:53:15;;;;;;;15.30;10.20;;;16.80;50.40;;;22.44;30.41;102942.38;5033360;28;20198;-63
2023/04/18 07:55:43;;;;;;;11.10;10.00;;;17.30;48.10;;;22.94;29.87;102937.66;5032610;28;20234;-63
2023/04/18 07:58:10;;;;;;;11.40;9.63;;;17.80;46.70;;;23.62;28.87;102929.31;5033228;28;20217;-58
2023/04/18 08:00:41;;;;;;;16.23;14.53;;;18.30;45.60;;;24.00;27.70;102932.19;5033518;28;20528;-60
2023/04/18 08:03:11;;;;;;;10.40;9.33;;;18.80;43.50;;;24.44;26.85;102931.50;5032688;28;20209;-60
2023/04/18 08:05:39;;;;;;;10.47;9.00;;;19.20;41.60;;;24.82;26.70;102930.50;5033391;28;20226;-60
2023/04/18 08:08:08;;;;;;;11.40;8.67;;;19.60;41.20;;;25.24;26.06;102933.59;5047833;28;20203;-61
2023/04/18 08:10:35;;;;;;;9.37;8.43;;;20.00;39.50;;;25.56;24.50;102932.53;5033366;28;20194;-60
2023/04/18 08:13:02;;;;;;;12.00;10.60;;;20.30;37.40;;;25.75;24.41;102934.25;5033195;28;20663;-60
2023/04/18 08:15:31;;;;;;;10.30;8.30;;;20.60;37.30;;;25.73;24.35;102943.63;5032819;28;20219;-59
2023/04/18 08:18:00;;;;;;;8.30;7.43;;;20.70;35.40;;;25.69;24.35;102945.94;5032948;28;20236;-63
2023/04/18 08:20:27;;;;;;;9.43;7.47;;;20.90;34.90;;;25.85;23.45;102931.03;5031399;28;20194;-59
2023/04/18 08:22:55;;;;;;;9.53;8.53;;;21.00;35.10;;;25.91;23.93;102933.69;5033203;28;20268;-62
2023/04/18 08:25:25;;;;;;;10.57;8.63;;;21.10;34.00;;;26.02;23.61;102932.13;5032765;28;20221;-62
2023/04/18 08:27:52;;;;;;;8.10;7.33;;;21.30;33.70;;;26.19;22.60;102941.34;5033402;28;20190;-60
2023/04/18 08:30:20;;;;;;;8.13;7.33;;;21.40;32.90;;;25.90;22.49;102939.31;5032964;28;20199;-60
2023/04/18 08:32:48;;;;;;;11.17;9.90;;;21.30;32.30;;;26.03;23.10;102941.91;5032548;28;20266;-61
2023/04/18 08:35:16;;;;;;;9.43;8.50;;;21.50;32.70;;;26.28;22.64;102931.88;5032977;28;20272;-62
2023/04/18 08:37:43;;;;;;;8.20;7.33;;;21.60;32.30;;;26.36;22.01;102934.28;5033450;28;20199;-63
2023/04/18 08:40:10;;;;;;;7.07;6.37;;;21.60;31.60;;;26.63;22.30;102934.78;5037033;28;20198;-62
2023/04/18 08:42:39;;;;;;;8.37;6.50;;;21.70;31.30;;;26.83;21.54;102940.78;5037373;28;20213;-61
2023/04/18 08:45:08;;;;;;;7.57;6.87;;;21.90;30.90;;;27.02;21.62;102938.88;5036205;28;20767;-62
2023/04/18 08:47:35;;;;;;;6.70;5.87;;;22.10;30.60;;;27.35;21.49;102940.03;5037245;28;20202;-60
2023/04/18 08:50:03;;;;;;;6.03;5.40;;;22.30;30.70;;;27.64;20.89;102941.03;5035985;28;20190;-63
2023/04/18 08:52:34;;;;;;;6.50;5.90;;;22.40;29.70;;;27.96;20.53;102942.34;5037051;28;20217;-58
2023/04/18 08:55:02;;;;;;;6.33;5.47;;;22.60;29.70;;;28.07;19.99;102943.44;5051981;28;20206;-63
2023/04/18 08:57:30;;;;;;;5.60;4.93;;;22.70;29.20;;;27.46;20.04;102943.81;5051693;28;20558;-60
2023/04/18 09:00:00;;;;;;;5.23;4.73;;;22.60;28.70;;;27.04;20.73;102942.16;5038544;28;20191;-60
2023/04/18 09:02:43;;;;;;;5.63;5.10;;;22.50;28.80;;;27.12;21.38;102933.72;5038688;28;20265;-62
2023/04/18 09:05:13;;;;;;;5.27;4.57;;;22.50;29.30;;;27.24;21.06;102937.28;5035593;28;20218;-61
2023/04/18 09:07:42;;;;;;;5.53;5.03;;;22.40;29.20;;;27.38;20.81;102922.53;5036459;28;20647;-60
2023/04/18 09:10:11;;;;;;;4.90;4.40;;;22.50;29.10;;;27.39;20.52;102935.00;5035974;28;20289;-59
2023/04/18 09:12:48;;;;;;;5.80;4.53;;;22.60;28.90;;;27.44;20.80;102933.25;5036450;28;20285;-59
2023/04/18 09:15:19;;;;;;;5.30;4.90;;;22.60;29.00;;;27.16;20.56;102937.63;5036432;28;20210;-62
2023/04/18 09:17:49;;;;;;;4.63;4.23;;;22.50;28.80;;;26.95;20.91;102938.97;5036604;28;20225;-61
2023/04/18 09:20:33;;;;;;;4.20;3.80;;;22.40;28.90;;;26.80;21.33;102931.25;5036676;28;20617;-61
2023/04/18 09:23:04;;;;;;;4.53;4.13;;;22.40;29.20;;;27.09;21.05;102936.88;5036836;28;20191;-61
2023/04/18 09:25:37;;;;;;;4.83;4.33;;;22.40;29.50;;;27.47;20.83;102934.66;5034192;28;20222;-62
2023/04/18 09:28:22;;;;;;;3.90;3.60;;;22.50;29.40;;;28.26;20.11;102930.56;5035769;28;20203;-61
2023/04/18 09:30:51;;;;;;;4.00;3.60;;;22.80;29.40;;;28.85;20.11;102924.75;5036194;28;20582;-63
2023/04/18 09:33:31;;;;;;;3.90;3.60;;;23.10;29.40;;;29.40;19.23;102927.66;5036487;28;20193;-62
2023/04/18 09:36:20;;;;;;;3.57;3.27;;;23.40;28.80;;;28.93;18.72;102932.47;5035966;28;20228;-62
2023/04/18 09:38:51;;;;;;;3.33;3.03;;;23.60;27.90;;;28.03;19.65;102926.81;5035489;28;20588;-60
2023/04/18 09:41:22;;;;;;;3.03;2.83;;;23.50;28.40;;;27.06;20.45;102929.22;5036606;28;20194;-63
2023/04/18 09:44:07;;;;;;;2.83;2.60;;;23.20;27.90;;;26.67;21.68;102928.69;5036311;28;20202;-63
2023/04/18 09:46:35;;;;;;;2.93;2.20;;;22.80;28.50;;;27.30;20.99;102914.72;5036838;28;20682;-62
2023/04/18 09:49:02;;;;;;;2.47;2.27;;;22.70;29.00;;;28.35;20.07;102918.28;5035740;28;20252;-61
2023/04/18 09:51:32;;;;;;;3.23;2.93;;;22.80;29.50;;;29.52;19.06;102922.13;5050870;28;20202;-61
2023/04/18 09:54:03;;;;;;;2.50;2.30;;;23.10;29.30;;;30.41;18.51;102913.66;5034911;28;20559;-60
2023/04/18 09:56:36;;;;;;;2.50;2.30;;;23.60;28.50;;;31.11;17.42;102918.25;5034650;28;20179;-58
2023/04/18 09:59:08;;;;;;;4.40;4.00;;;24.10;28.00;;;31.76;17.02;102913.31;5035916;28;20274;-60
2023/04/18 10:01:35;;;;;;;3.13;2.73;;;24.60;27.60;;;32.28;16.79;102923.44;5035898;28;20679;-63
2023/04/18 10:04:05;;;;;;;2.90;2.60;;;25.10;27.20;;;32.63;16.29;102921.69;5033832;28;20265;-64
2023/04/18 10:06:38;;;;;;;3.83;2.50;;;25.50;26.50;;;32.23;16.56;102916.06;5036479;28;20195;-64
2023/04/18 10:09:08;;;;;;;2.53;2.37;;;25.70;25.80;;;31.46;16.29;102915.84;5036674;28;20214;-63